KDDC/DDC METAR and TAF weather

Enter ICAO airport designator
Station Type Date Time Source
KDDC METAR 2022/12/02 21:52 UTC NOAA

KDDC 022152Z AUTO 28018G28KT 2 1/2SM HZ BKN025 OVC034 22/M04 A2973 RMK AO2 PK WND 28028/2152 SLP052 T02221039


Station Type Date Time Source
KDDC Decoded METAR 2022/12/02 21:52 UTC NOAA

DODGE CITY REGIONAL AIRPORT, KS, United States (KDDC) 37-46N 99-58W 789M
Dec 02, 2022 - 04:52 PM EST / 2022.12.02 2152 UTC
Wind: from the W (280 degrees) at 21 MPH (18 KT) gusting to 32 MPH (28 KT):0
Visibility: 2 1/2 mile(s):0
Sky conditions: overcast
Weather: haze
Temperature: 72.0 F (22.2 C)
Dew Point: 25.0 F (-3.9 C)
Relative Humidity: 17%
Pressure (altimeter): 29.73 in. Hg (1006 hPa)
ob: KDDC 022152Z AUTO 28018G28KT 2 1/2SM HZ BKN025 OVC034 22/M04 A2973 RMK AO2 PK WND 28028/2152 SLP052 T02221039
cycle: 22

Station Type Date Time Source
KDDC TAF 2022/12/02 21:18 UTC NOAA

TAF
AMD KDDC 022117Z 0221/0318 25020G30KT 5SM DU VV040
FM022300 34035G45KT 1SM BLDU VV010
FM030100 35020G28KT 5SM BLDU SKC
FM030500 31008KT P6SM SKC

Example: see airport list